sensor_id;sensor_type;location;lat;lon;timestamp;pressure;altitude;pressure_sealevel;temperature;humidity
7264;BME280;3673;52.480;13.348;2023-03-13T00:00:58;100218.47;;;11.11;62.55
7264;BME280;3673;52.480;13.348;2023-03-13T00:03:26;100215.63;;;11.32;62.20
7264;BME280;3673;52.480;13.348;2023-03-13T00:05:55;100217.72;;;11.01;62.87
7264;BME280;3673;52.480;13.348;2023-03-13T00:08:23;100217.41;;;11.30;62.05
7264;BME280;3673;52.480;13.348;2023-03-13T00:10:51;100214.03;;;11.20;62.09
7264;BME280;3673;52.480;13.348;2023-03-13T00:13:18;100207.97;;;11.17;62.75
7264;BME280;3673;52.480;13.348;2023-03-13T00:15:44;100209.41;;;11.39;62.00
7264;BME280;3673;52.480;13.348;2023-03-13T00:18:11;100205.06;;;11.38;62.14
7264;BME280;3673;52.480;13.348;2023-03-13T00:20:38;100202.34;;;11.46;62.37
7264;BME280;3673;52.480;13.348;2023-03-13T00:23:05;100191.94;;;11.41;62.40
7264;BME280;3673;52.480;13.348;2023-03-13T00:25:31;100202.47;;;11.36;62.42
7264;BME280;3673;52.480;13.348;2023-03-13T00:27:59;100199.94;;;11.27;63.36
7264;BME280;3673;52.480;13.348;2023-03-13T00:30:26;100199.72;;;11.46;62.64
7264;BME280;3673;52.480;13.348;2023-03-13T00:32:53;100186.59;;;11.49;62.60
7264;BME280;3673;52.480;13.348;2023-03-13T00:35:20;100192.75;;;11.46;62.76
7264;BME280;3673;52.480;13.348;2023-03-13T00:37:46;100184.50;;;11.76;61.79
7264;BME280;3673;52.480;13.348;2023-03-13T00:40:13;100196.78;;;11.70;62.39
7264;BME280;3673;52.480;13.348;2023-03-13T00:42:40;100187.34;;;11.58;63.03
7264;BME280;3673;52.480;13.348;2023-03-13T00:45:09;100183.75;;;11.65;62.70
7264;BME280;3673;52.480;13.348;2023-03-13T00:47:36;100183.63;;;11.77;62.47
7264;BME280;3673;52.480;13.348;2023-03-13T00:50:03;100174.53;;;11.37;63.05
7264;BME280;3673;52.480;13.348;2023-03-13T00:52:30;100165.59;;;11.52;63.21
7264;BME280;3673;52.480;13.348;2023-03-13T00:54:57;100171.78;;;11.46;63.04
7264;BME280;3673;52.480;13.348;2023-03-13T00:57:24;100174.75;;;11.20;63.73
7264;BME280;3673;52.480;13.348;2023-03-13T00:59:50;100161.50;;;11.31;63.88
7264;BME280;3673;52.480;13.348;2023-03-13T01:02:18;100166.59;;;11.43;63.50
7264;BME280;3673;52.480;13.348;2023-03-13T01:04:45;100164.22;;;11.26;63.40
7264;BME280;3673;52.480;13.348;2023-03-13T01:07:12;100153.59;;;11.37;63.85
7264;BME280;3673;52.480;13.348;2023-03-13T01:09:39;100162.47;;;11.25;63.92
7264;BME280;3673;52.480;13.348;2023-03-13T01:12:06;100145.69;;;11.40;63.59
7264;BME280;3673;52.480;13.348;2023-03-13T01:14:33;100147.06;;;11.65;62.86
7264;BME280;3673;52.480;13.348;2023-03-13T01:17:00;100154.31;;;11.47;63.05
7264;BME280;3673;52.480;13.348;2023-03-13T01:19:28;100161.91;;;11.65;62.81
7264;BME280;3673;52.480;13.348;2023-03-13T01:21:55;100149.28;;;11.33;63.45
7264;BME280;3673;52.480;13.348;2023-03-13T01:24:21;100147.56;;;11.30;63.84
7264;BME280;3673;52.480;13.348;2023-03-13T01:26:49;100154.34;;;11.45;62.91
7264;BME280;3673;52.480;13.348;2023-03-13T01:29:15;100150.94;;;11.38;62.91
7264;BME280;3673;52.480;13.348;2023-03-13T01:31:42;100154.28;;;11.50;63.24
7264;BME280;3673;52.480;13.348;2023-03-13T01:34:10;100145.50;;;11.52;63.00
7264;BME280;3673;52.480;13.348;2023-03-13T01:36:38;100151.81;;;11.39;63.12
7264;BME280;3673;52.480;13.348;2023-03-13T01:39:05;100141.28;;;11.42;62.73
7264;BME280;3673;52.480;13.348;2023-03-13T01:41:32;100148.25;;;11.43;63.08
7264;BME280;3673;52.480;13.348;2023-03-13T01:43:58;100143.72;;;11.57;62.46
7264;BME280;3673;52.480;13.348;2023-03-13T01:46:26;100142.09;;;11.47;62.76
7264;BME280;3673;52.480;13.348;2023-03-13T01:48:58;100149.19;;;11.37;63.27
7264;BME280;3673;52.480;13.348;2023-03-13T01:51:28;100135.84;;;11.56;62.09
7264;BME280;3673;52.480;13.348;2023-03-13T01:54:02;100136.69;;;11.58;61.93
7264;BME280;3673;52.480;13.348;2023-03-13T01:56:36;100127.06;;;11.58;62.02
7264;BME280;3673;52.480;13.348;2023-03-13T01:59:09;100119.91;;;11.72;61.88
7264;BME280;3673;52.480;13.348;2023-03-13T02:01:40;100116.69;;;11.54;61.95
7264;BME280;3673;52.480;13.348;2023-03-13T02:04:08;100113.69;;;11.78;61.45
7264;BME280;3673;52.480;13.348;2023-03-13T02:06:37;100112.91;;;11.73;60.89
7264;BME280;3673;52.480;13.348;2023-03-13T02:09:11;100105.00;;;11.76;61.28
7264;BME280;3673;52.480;13.348;2023-03-13T02:11:47;100104.84;;;11.85;61.24
7264;BME280;3673;52.480;13.348;2023-03-13T02:14:16;100099.13;;;11.59;61.42
7264;BME280;3673;52.480;13.348;2023-03-13T02:16:44;100101.53;;;11.75;61.15
7264;BME280;3673;52.480;13.348;2023-03-13T02:19:19;100094.78;;;11.58;61.61
7264;BME280;3673;52.480;13.348;2023-03-13T02:21:53;100095.84;;;11.45;62.09
7264;BME280;3673;52.480;13.348;2023-03-13T02:24:30;100085.03;;;11.70;61.58
7264;BME280;3673;52.480;13.348;2023-03-13T02:27:00;100085.72;;;11.80;61.41
7264;BME280;3673;52.480;13.348;2023-03-13T02:29:28;100081.97;;;11.96;60.38
7264;BME280;3673;52.480;13.348;2023-03-13T02:31:55;100080.50;;;11.78;60.84
7264;BME280;3673;52.480;13.348;2023-03-13T02:34:31;100070.94;;;11.77;60.94
7264;BME280;3673;52.480;13.348;2023-03-13T02:37:01;100079.72;;;11.73;61.29
7264;BME280;3673;52.480;13.348;2023-03-13T02:39:31;100068.31;;;11.77;61.24
7264;BME280;3673;52.480;13.348;2023-03-13T02:42:01;100069.25;;;11.72;61.35
7264;BME280;3673;52.480;13.348;2023-03-13T02:44:29;100067.28;;;11.84;61.19
7264;BME280;3673;52.480;13.348;2023-03-13T02:46:56;100066.34;;;11.90;61.01
7264;BME280;3673;52.480;13.348;2023-03-13T02:49:24;100053.28;;;11.87;61.03
7264;BME280;3673;52.480;13.348;2023-03-13T02:51:53;100044.41;;;11.96;60.85
7264;BME280;3673;52.480;13.348;2023-03-13T02:54:23;100053.72;;;12.12;60.22
7264;BME280;3673;52.480;13.348;2023-03-13T02:56:55;100044.06;;;12.14;60.44
7264;BME280;3673;52.480;13.348;2023-03-13T02:59:25;100034.53;;;12.08;60.59
7264;BME280;3673;52.480;13.348;2023-03-13T03:01:52;100029.34;;;12.07;60.55
7264;BME280;3673;52.480;13.348;2023-03-13T03:04:20;100023.94;;;12.16;60.11
7264;BME280;3673;52.480;13.348;2023-03-13T03:06:48;100020.63;;;12.06;60.44
7264;BME280;3673;52.480;13.348;2023-03-13T03:09:16;100022.03;;;12.24;60.28
7264;BME280;3673;52.480;13.348;2023-03-13T03:11:44;100005.63;;;12.13;60.32
7264;BME280;3673;52.480;13.348;2023-03-13T03:14:11;100013.50;;;12.11;59.88
7264;BME280;3673;52.480;13.348;2023-03-13T03:16:40;100008.84;;;12.27;59.67
7264;BME280;3673;52.480;13.348;2023-03-13T03:19:07;100005.69;;;12.10;60.70
7264;BME280;3673;52.480;13.348;2023-03-13T03:21:34;100006.94;;;12.35;59.85
7264;BME280;3673;52.480;13.348;2023-03-13T03:24:01;100006.34;;;12.64;59.01
7264;BME280;3673;52.480;13.348;2023-03-13T03:26:28;100004.34;;;12.75;58.83
7264;BME280;3673;52.480;13.348;2023-03-13T03:28:55;100007.31;;;12.58;59.27
7264;BME280;3673;52.480;13.348;2023-03-13T03:31:22;100003.06;;;12.54;59.39
7264;BME280;3673;52.480;13.348;2023-03-13T03:33:51;100000.47;;;12.51;59.60
7264;BME280;3673;52.480;13.348;2023-03-13T03:36:20;100003.06;;;12.54;59.47
7264;BME280;3673;52.480;13.348;2023-03-13T03:38:47;99997.97;;;12.45;59.51
7264;BME280;3673;52.480;13.348;2023-03-13T03:41:15;99999.31;;;12.23;60.74
7264;BME280;3673;52.480;13.348;2023-03-13T03:43:42;99994.22;;;12.15;60.70
7264;BME280;3673;52.480;13.348;2023-03-13T03:46:09;99987.97;;;12.21;61.03
7264;BME280;3673;52.480;13.348;2023-03-13T03:48:36;99978.81;;;12.43;60.35
7264;BME280;3673;52.480;13.348;2023-03-13T03:51:05;99982.09;;;12.51;59.96
7264;BME280;3673;52.480;13.348;2023-03-13T03:53:32;99976.09;;;12.46;59.94
7264;BME280;3673;52.480;13.348;2023-03-13T03:56:00;99972.47;;;12.52;60.16
7264;BME280;3673;52.480;13.348;2023-03-13T03:58:26;99974.78;;;12.25;60.67
7264;BME280;3673;52.480;13.348;2023-03-13T04:00:56;99971.88;;;12.39;60.26
7264;BME280;3673;52.480;13.348;2023-03-13T04:03:23;99964.53;;;12.56;59.80
7264;BME280;3673;52.480;13.348;2023-03-13T04:05:51;99953.44;;;12.44;60.00
7264;BME280;3673;52.480;13.348;2023-03-13T04:08:19;99956.41;;;12.27;60.46
7264;BME280;3673;52.480;13.348;2023-03-13T04:10:46;99948.34;;;12.34;60.50
7264;BME280;3673;52.480;13.348;2023-03-13T04:13:13;99947.34;;;12.42;60.58
7264;BME280;3673;52.480;13.348;2023-03-13T04:15:40;99948.63;;;12.22;60.95
7264;BME280;3673;52.480;13.348;2023-03-13T04:18:07;99932.81;;;12.27;61.25
7264;BME280;3673;52.480;13.348;2023-03-13T04:20:35;99934.72;;;12.19;61.05
7264;BME280;3673;52.480;13.348;2023-03-13T04:23:02;99938.72;;;12.36;60.95
7264;BME280;3673;52.480;13.348;2023-03-13T04:25:30;99935.84;;;12.06;61.67
7264;BME280;3673;52.480;13.348;2023-03-13T04:27:57;99921.00;;;12.05;61.63
7264;BME280;3673;52.480;13.348;2023-03-13T04:30:23;99913.47;;;12.31;60.96
7264;BME280;3673;52.480;13.348;2023-03-13T04:32:50;99907.44;;;12.27;61.19
7264;BME280;3673;52.480;13.348;2023-03-13T04:35:17;99911.09;;;12.20;61.11
7264;BME280;3673;52.480;13.348;2023-03-13T04:37:44;99911.09;;;12.20;61.56
7264;BME280;3673;52.480;13.348;2023-03-13T04:40:11;99901.28;;;12.30;61.13
7264;BME280;3673;52.480;13.348;2023-03-13T04:42:40;99901.91;;;12.00;61.87
7264;BME280;3673;52.480;13.348;2023-03-13T04:45:11;99891.75;;;12.24;61.11
7264;BME280;3673;52.480;13.348;2023-03-13T04:47:38;99892.00;;;12.14;61.43
7264;BME280;3673;52.480;13.348;2023-03-13T04:50:05;99878.97;;;12.11;61.50
7264;BME280;3673;52.480;13.348;2023-03-13T04:52:32;99888.47;;;12.15;61.41
7264;BME280;3673;52.480;13.348;2023-03-13T04:54:59;99875.41;;;12.13;61.63
7264;BME280;3673;52.480;13.348;2023-03-13T04:57:25;99878.91;;;12.14;61.52
7264;BME280;3673;52.480;13.348;2023-03-13T04:59:53;99872.44;;;12.28;61.20
7264;BME280;3673;52.480;13.348;2023-03-13T05:02:21;99869.97;;;12.21;61.36
7264;BME280;3673;52.480;13.348;2023-03-13T05:04:47;99865.44;;;12.29;61.24
7264;BME280;3673;52.480;13.348;2023-03-13T05:07:14;99854.75;;;12.38;61.22
7264;BME280;3673;52.480;13.348;2023-03-13T05:09:41;99840.66;;;12.42;61.04
7264;BME280;3673;52.480;13.348;2023-03-13T05:12:08;99835.78;;;12.27;61.55
7264;BME280;3673;52.480;13.348;2023-03-13T05:14:35;99821.75;;;12.28;61.86
7264;BME280;3673;52.480;13.348;2023-03-13T05:17:03;99822.13;;;12.50;61.37
7264;BME280;3673;52.480;13.348;2023-03-13T05:19:30;99820.53;;;12.44;61.59
7264;BME280;3673;52.480;13.348;2023-03-13T05:21:56;99819.81;;;12.36;61.84
7264;BME280;3673;52.480;13.348;2023-03-13T05:24:23;99813.94;;;12.25;62.71
7264;BME280;3673;52.480;13.348;2023-03-13T05:26:50;99823.91;;;12.11;62.85
7264;BME280;3673;52.480;13.348;2023-03-13T05:29:16;99814.47;;;12.02;63.25
7264;BME280;3673;52.480;13.348;2023-03-13T05:31:43;99815.91;;;12.17;62.89
7264;BME280;3673;52.480;13.348;2023-03-13T05:34:11;99808.06;;;12.15;63.10
7264;BME280;3673;52.480;13.348;2023-03-13T05:36:38;99795.09;;;12.46;62.04
7264;BME280;3673;52.480;13.348;2023-03-13T05:39:05;99788.09;;;12.08;63.36
7264;BME280;3673;52.480;13.348;2023-03-13T05:41:32;99788.75;;;12.19;63.43
7264;BME280;3673;52.480;13.348;2023-03-13T05:43:59;99783.91;;;12.38;62.81
7264;BME280;3673;52.480;13.348;2023-03-13T05:46:25;99767.47;;;12.31;63.13
7264;BME280;3673;52.480;13.348;2023-03-13T05:48:52;99765.31;;;12.12;63.88
7264;BME280;3673;52.480;13.348;2023-03-13T05:51:20;99755.28;;;12.29;63.17
7264;BME280;3673;52.480;13.348;2023-03-13T05:53:47;99748.84;;;12.42;63.10
7264;BME280;3673;52.480;13.348;2023-03-13T05:56:14;99752.66;;;12.30;63.15
7264;BME280;3673;52.480;13.348;2023-03-13T05:58:40;99739.78;;;12.55;62.72
7264;BME280;3673;52.480;13.348;2023-03-13T06:01:08;99750.00;;;12.67;62.46
7264;BME280;3673;52.480;13.348;2023-03-13T06:03:35;99732.78;;;12.56;62.92
7264;BME280;3673;52.480;13.348;2023-03-13T06:06:02;99738.91;;;12.56;62.77
7264;BME280;3673;52.480;13.348;2023-03-13T06:08:30;99731.97;;;12.54;62.59
7264;BME280;3673;52.480;13.348;2023-03-13T06:10:58;99739.06;;;12.49;63.54
7264;BME280;3673;52.480;13.348;2023-03-13T06:13:26;99746.50;;;12.31;63.37
7264;BME280;3673;52.480;13.348;2023-03-13T06:15:54;99728.84;;;12.38;63.25
7264;BME280;3673;52.480;13.348;2023-03-13T06:18:22;99719.59;;;12.23;63.62
7264;BME280;3673;52.480;13.348;2023-03-13T06:20:54;99715.16;;;12.27;64.35
7264;BME280;3673;52.480;13.348;2023-03-13T06:23:21;99721.28;;;12.26;63.82
7264;BME280;3673;52.480;13.348;2023-03-13T06:25:49;99710.41;;;12.06;64.44
7264;BME280;3673;52.480;13.348;2023-03-13T06:28:16;99699.66;;;12.16;64.92
7264;BME280;3673;52.480;13.348;2023-03-13T06:30:43;99698.97;;;12.10;64.97
7264;BME280;3673;52.480;13.348;2023-03-13T06:33:10;99694.44;;;12.16;64.40
7264;BME280;3673;52.480;13.348;2023-03-13T06:35:39;99674.88;;;12.29;64.28
7264;BME280;3673;52.480;13.348;2023-03-13T06:38:06;99670.34;;;12.36;64.02
7264;BME280;3673;52.480;13.348;2023-03-13T06:40:33;99668.38;;;12.10;64.85
7264;BME280;3673;52.480;13.348;2023-03-13T06:43:01;99663.31;;;12.01;65.15
7264;BME280;3673;52.480;13.348;2023-03-13T06:45:27;99658.59;;;12.15;64.71
7264;BME280;3673;52.480;13.348;2023-03-13T06:47:54;99645.66;;;12.09;64.97
7264;BME280;3673;52.480;13.348;2023-03-13T06:50:21;99636.66;;;12.19;65.02
7264;BME280;3673;52.480;13.348;2023-03-13T06:52:48;99634.03;;;12.19;64.54
7264;BME280;3673;52.480;13.348;2023-03-13T06:55:15;99625.00;;;12.31;64.49
7264;BME280;3673;52.480;13.348;2023-03-13T06:57:42;99625.28;;;12.20;65.43
7264;BME280;3673;52.480;13.348;2023-03-13T07:00:11;99625.63;;;12.41;64.59
7264;BME280;3673;52.480;13.348;2023-03-13T07:02:39;99619.63;;;12.02;65.26
7264;BME280;3673;52.480;13.348;2023-03-13T07:05:07;99614.38;;;12.37;65.14
7264;BME280;3673;52.480;13.348;2023-03-13T07:07:34;99617.91;;;12.34;65.00
7264;BME280;3673;52.480;13.348;2023-03-13T07:10:01;99618.03;;;12.30;65.27
7264;BME280;3673;52.480;13.348;2023-03-13T07:12:29;99613.94;;;12.20;65.50
7264;BME280;3673;52.480;13.348;2023-03-13T07:14:56;99618.34;;;12.18;65.67
7264;BME280;3673;52.480;13.348;2023-03-13T07:17:24;99621.28;;;12.06;66.42
7264;BME280;3673;52.480;13.348;2023-03-13T07:19:50;99619.03;;;12.24;65.94
7264;BME280;3673;52.480;13.348;2023-03-13T07:22:17;99609.91;;;12.41;65.78
7264;BME280;3673;52.480;13.348;2023-03-13T07:24:44;99606.53;;;12.35;66.28
7264;BME280;3673;52.480;13.348;2023-03-13T07:27:11;99600.63;;;12.27;66.35
7264;BME280;3673;52.480;13.348;2023-03-13T07:29:38;99598.03;;;12.26;66.36
7264;BME280;3673;52.480;13.348;2023-03-13T07:32:06;99597.53;;;12.12;66.95
7264;BME280;3673;52.480;13.348;2023-03-13T07:34:34;99597.09;;;12.28;66.85
7264;BME280;3673;52.480;13.348;2023-03-13T07:37:01;99592.97;;;12.18;67.51
7264;BME280;3673;52.480;13.348;2023-03-13T07:39:27;99584.75;;;12.33;67.05
7264;BME280;3673;52.480;13.348;2023-03-13T07:41:54;99592.63;;;12.32;67.27
7264;BME280;3673;52.480;13.348;2023-03-13T07:44:21;99588.00;;;12.42;67.02
7264;BME280;3673;52.480;13.348;2023-03-13T07:46:47;99579.50;;;12.64;67.02
7264;BME280;3673;52.480;13.348;2023-03-13T07:49:14;99574.47;;;12.24;67.61
7264;BME280;3673;52.480;13.348;2023-03-13T07:51:43;99567.16;;;12.37;67.61
7264;BME280;3673;52.480;13.348;2023-03-13T07:54:12;99563.38;;;12.47;67.67
7264;BME280;3673;52.480;13.348;2023-03-13T07:56:39;99560.53;;;12.24;67.97
7264;BME280;3673;52.480;13.348;2023-03-13T07:59:06;99553.97;;;12.38;67.92
7264;BME280;3673;52.480;13.348;2023-03-13T08:01:33;99552.56;;;12.27;68.34
7264;BME280;3673;52.480;13.348;2023-03-13T08:04:01;99545.25;;;12.38;68.03
7264;BME280;3673;52.480;13.348;2023-03-13T08:06:30;99554.59;;;12.48;68.15
7264;BME280;3673;52.480;13.348;2023-03-13T08:08:58;99551.44;;;12.35;68.07
7264;BME280;3673;52.480;13.348;2023-03-13T08:11:26;99540.25;;;12.30;68.49
7264;BME280;3673;52.480;13.348;2023-03-13T08:13:55;99550.22;;;12.16;69.16
7264;BME280;3673;52.480;13.348;2023-03-13T08:16:24;99535.19;;;12.23;69.34
7264;BME280;3673;52.480;13.348;2023-03-13T08:18:53;99534.66;;;12.43;69.30
7264;BME280;3673;52.480;13.348;2023-03-13T08:21:23;99527.97;;;12.31;69.23
7264;BME280;3673;52.480;13.348;2023-03-13T08:23:52;99531.22;;;12.41;69.95
7264;BME280;3673;52.480;13.348;2023-03-13T08:26:23;99518.59;;;12.22;70.16
7264;BME280;3673;52.480;13.348;2023-03-13T08:28:53;99519.94;;;12.37;70.56
7264;BME280;3673;52.480;13.348;2023-03-13T08:31:23;99512.63;;;12.48;70.43
7264;BME280;3673;52.480;13.348;2023-03-13T08:33:51;99509.38;;;12.40;70.12
7264;BME280;3673;52.480;13.348;2023-03-13T08:36:20;99511.63;;;12.52;69.92
7264;BME280;3673;52.480;13.348;2023-03-13T08:38:50;99512.47;;;12.23;70.76
7264;BME280;3673;52.480;13.348;2023-03-13T08:41:21;99503.28;;;12.38;70.90
7264;BME280;3673;52.480;13.348;2023-03-13T08:43:48;99497.91;;;12.44;70.34
7264;BME280;3673;52.480;13.348;2023-03-13T08:46:15;99496.28;;;12.38;70.66
7264;BME280;3673;52.480;13.348;2023-03-13T08:48:42;99500.66;;;12.38;70.93
7264;BME280;3673;52.480;13.348;2023-03-13T08:51:11;99493.00;;;12.61;70.53
7264;BME280;3673;52.480;13.348;2023-03-13T08:53:39;99483.19;;;12.68;70.30
7264;BME280;3673;52.480;13.348;2023-03-13T08:56:07;99475.28;;;12.69;69.59
7264;BME280;3673;52.480;13.348;2023-03-13T08:58:36;99467.38;;;12.71;69.63
7264;BME280;3673;52.480;13.348;2023-03-13T09:01:05;99471.56;;;12.76;69.34
7264;BME280;3673;52.480;13.348;2023-03-13T09:03:32;99483.47;;;13.17;68.75
7264;BME280;3673;52.480;13.348;2023-03-13T09:06:03;99466.88;;;12.87;69.04
7264;BME280;3673;52.480;13.348;2023-03-13T09:08:31;99467.59;;;13.20;68.42
7264;BME280;3673;52.480;13.348;2023-03-13T09:11:00;99455.28;;;13.22;67.76
7264;BME280;3673;52.480;13.348;2023-03-13T09:13:29;99453.44;;;12.97;68.36
7264;BME280;3673;52.480;13.348;2023-03-13T09:15:58;99445.84;;;13.17;68.35
7264;BME280;3673;52.480;13.348;2023-03-13T09:18:27;99450.63;;;13.03;68.17
7264;BME280;3673;52.480;13.348;2023-03-13T09:20:54;99461.75;;;12.83;68.74
7264;BME280;3673;52.480;13.348;2023-03-13T09:23:21;99463.22;;;13.21;68.26
7264;BME280;3673;52.480;13.348;2023-03-13T09:25:48;99452.72;;;13.21;68.15
7264;BME280;3673;52.480;13.348;2023-03-13T09:28:17;99456.13;;;13.49;67.92
7264;BME280;3673;52.480;13.348;2023-03-13T09:30:44;99460.72;;;13.16;68.63
7264;BME280;3673;52.480;13.348;2023-03-13T09:33:12;99466.84;;;13.17;68.14
7264;BME280;3673;52.480;13.348;2023-03-13T09:35:39;99467.66;;;13.19;68.12
7264;BME280;3673;52.480;13.348;2023-03-13T09:38:06;99457.09;;;12.91;69.00
7264;BME280;3673;52.480;13.348;2023-03-13T09:40:37;99457.25;;;13.16;69.03
7264;BME280;3673;52.480;13.348;2023-03-13T09:43:18;99453.81;;;13.14;69.26
7264;BME280;3673;52.480;13.348;2023-03-13T09:45:49;99445.56;;;13.24;69.20
7264;BME280;3673;52.480;13.348;2023-03-13T09:48:28;99440.69;;;13.40;68.76
7264;BME280;3673;52.480;13.348;2023-03-13T09:51:04;99441.28;;;13.48;68.37
7264;BME280;3673;52.480;13.348;2023-03-13T09:53:40;99433.72;;;13.39;68.36
7264;BME280;3673;52.480;13.348;2023-03-13T09:56:17;99437.72;;;13.51;67.87
7264;BME280;3673;52.480;13.348;2023-03-13T09:58:53;99430.13;;;13.41;67.86
7264;BME280;3673;52.480;13.348;2023-03-13T10:01:25;99427.69;;;13.35;68.46
7264;BME280;3673;52.480;13.348;2023-03-13T10:04:24;99432.50;;;13.49;67.88
7264;BME280;3673;52.480;13.348;2023-03-13T10:06:53;99439.25;;;13.56;67.47
7264;BME280;3673;52.480;13.348;2023-03-13T10:09:25;99439.28;;;13.81;67.96
7264;BME280;3673;52.480;13.348;2023-03-13T10:12:00;99436.38;;;13.64;68.47
7264;BME280;3673;52.480;13.348;2023-03-13T10:14:35;99424.94;;;13.65;68.73
7264;BME280;3673;52.480;13.348;2023-03-13T10:17:11;99439.75;;;13.41;69.28
7264;BME280;3673;52.480;13.348;2023-03-13T10:19:42;99432.19;;;13.58;69.51
7264;BME280;3673;52.480;13.348;2023-03-13T10:22:14;99437.97;;;13.68;68.97
7264;BME280;3673;52.480;13.348;2023-03-13T10:24:48;99426.34;;;13.75;68.88
7264;BME280;3673;52.480;13.348;2023-03-13T10:27:17;99420.59;;;13.88;68.40
7264;BME280;3673;52.480;13.348;2023-03-13T10:29:43;99418.03;;;13.62;68.80
7264;BME280;3673;52.480;13.348;2023-03-13T10:32:13;99410.84;;;13.92;69.01
7264;BME280;3673;52.480;13.348;2023-03-13T10:34:51;99410.31;;;14.07;68.20
7264;BME280;3673;52.480;13.348;2023-03-13T10:37:22;99408.81;;;14.23;67.95
7264;BME280;3673;52.480;13.348;2023-03-13T10:39:49;99405.94;;;14.29;67.89
7264;BME280;3673;52.480;13.348;2023-03-13T10:42:23;99397.16;;;14.07;68.19
7264;BME280;3673;52.480;13.348;2023-03-13T10:44:57;99391.69;;;14.36;67.77
7264;BME280;3673;52.480;13.348;2023-03-13T10:47:25;99388.31;;;14.08;68.08
7264;BME280;3673;52.480;13.348;2023-03-13T10:49:56;99389.19;;;14.55;67.37
7264;BME280;3673;52.480;13.348;2023-03-13T10:52:34;99381.38;;;14.54;67.05
7264;BME280;3673;52.480;13.348;2023-03-13T10:55:11;99380.53;;;14.75;66.04
7264;BME280;3673;52.480;13.348;2023-03-13T10:57:41;99383.16;;;14.75;66.23
7264;BME280;3673;52.480;13.348;2023-03-13T11:00:37;99364.84;;;14.93;65.57
7264;BME280;3673;52.480;13.348;2023-03-13T11:03:13;99375.19;;;15.20;65.03
7264;BME280;3673;52.480;13.348;2023-03-13T11:05:52;99372.13;;;15.09;64.99
7264;BME280;3673;52.480;13.348;2023-03-13T11:08:23;99368.44;;;15.55;64.70
7264;BME280;3673;52.480;13.348;2023-03-13T11:10:58;99356.50;;;15.46;64.42
7264;BME280;3673;52.480;13.348;2023-03-13T11:13:29;99356.66;;;15.41;63.97
7264;BME280;3673;52.480;13.348;2023-03-13T11:15:59;99352.56;;;15.76;63.38
7264;BME280;3673;52.480;13.348;2023-03-13T11:18:33;99334.66;;;16.59;61.93
7264;BME280;3673;52.480;13.348;2023-03-13T11:21:05;99348.75;;;16.39;61.45
7264;BME280;3673;52.480;13.348;2023-03-13T11:23:38;99335.63;;;16.19;61.87
7264;BME280;3673;52.480;13.348;2023-03-13T11:26:12;99328.44;;;16.04;62.27
7264;BME280;3673;52.480;13.348;2023-03-13T11:28:51;99324.25;;;16.37;61.27
7264;BME280;3673;52.480;13.348;2023-03-13T11:31:26;99329.97;;;16.83;60.26
7264;BME280;3673;52.480;13.348;2023-03-13T11:34:01;99323.00;;;16.99;59.51
7264;BME280;3673;52.480;13.348;2023-03-13T11:36:35;99334.66;;;16.95;59.94
7264;BME280;3673;52.480;13.348;2023-03-13T11:39:36;99328.28;;;16.99;59.59
7264;BME280;3673;52.480;13.348;2023-03-13T11:42:19;99326.78;;;16.76;60.05
7264;BME280;3673;52.480;13.348;2023-03-13T11:44:59;99312.50;;;17.15;59.42
7264;BME280;3673;52.480;13.348;2023-03-13T11:47:41;99321.94;;;17.20;58.88
7264;BME280;3673;52.480;13.348;2023-03-13T11:50:22;99317.34;;;17.07;59.33
7264;BME280;3673;52.480;13.348;2023-03-13T11:53:12;99321.59;;;16.92;59.37
7264;BME280;3673;52.480;13.348;2023-03-13T11:56:00;99331.16;;;17.12;59.32
7264;BME280;3673;52.480;13.348;2023-03-13T11:58:48;99318.84;;;16.76;59.89
7264;BME280;3673;52.480;13.348;2023-03-13T12:01:18;99323.09;;;17.32;58.40
7264;BME280;3673;52.480;13.348;2023-03-13T12:03:55;99331.44;;;16.88;59.64
7264;BME280;3673;52.480;13.348;2023-03-13T12:06:28;99317.81;;;16.97;59.43
7264;BME280;3673;52.480;13.348;2023-03-13T12:09:05;99327.69;;;16.94;59.05
7264;BME280;3673;52.480;13.348;2023-03-13T12:11:39;99314.94;;;17.36;58.84
7264;BME280;3673;52.480;13.348;2023-03-13T12:14:12;99318.16;;;17.76;57.46
7264;BME280;3673;52.480;13.348;2023-03-13T12:16:44;99327.00;;;17.59;57.52
7264;BME280;3673;52.480;13.348;2023-03-13T12:19:18;99313.44;;;17.65;57.42
7264;BME280;3673;52.480;13.348;2023-03-13T12:21:49;99315.84;;;18.02;56.39
7264;BME280;3673;52.480;13.348;2023-03-13T12:24:30;99320.22;;;17.71;56.96
7264;BME280;3673;52.480;13.348;2023-03-13T12:27:02;99297.78;;;18.11;56.39
7264;BME280;3673;52.480;13.348;2023-03-13T12:29:42;99294.25;;;18.10;56.19
7264;BME280;3673;52.480;13.348;2023-03-13T12:32:15;99294.25;;;18.41;55.50
7264;BME280;3673;52.480;13.348;2023-03-13T12:34:58;99289.09;;;19.01;54.21
7264;BME280;3673;52.480;13.348;2023-03-13T12:37:32;99287.44;;;19.44;52.71
7264;BME280;3673;52.480;13.348;2023-03-13T12:40:11;99288.09;;;19.18;52.92
7264;BME280;3673;52.480;13.348;2023-03-13T12:42:48;99272.78;;;18.93;53.73
7264;BME280;3673;52.480;13.348;2023-03-13T12:45:18;99279.78;;;19.24;53.02
7264;BME280;3673;52.480;13.348;2023-03-13T12:48:09;99285.34;;;19.49;52.32
7264;BME280;3673;52.480;13.348;2023-03-13T12:51:00;99276.47;;;19.64;51.86
7264;BME280;3673;52.480;13.348;2023-03-13T12:56:46;99264.09;;;21.14;48.33
7264;BME280;3673;52.480;13.348;2023-03-13T12:59:21;99256.56;;;21.71;46.87
7264;BME280;3673;52.480;13.348;2023-03-13T13:01:51;99252.00;;;22.22;45.50
7264;BME280;3673;52.480;13.348;2023-03-13T13:04:21;99252.59;;;22.15;45.36
7264;BME280;3673;52.480;13.348;2023-03-13T13:06:57;99248.91;;;22.52;44.67
7264;BME280;3673;52.480;13.348;2023-03-13T13:09:29;99243.56;;;21.67;46.01
7264;BME280;3673;52.480;13.348;2023-03-13T13:12:00;99239.72;;;21.45;46.36
7264;BME280;3673;52.480;13.348;2023-03-13T13:15:13;99242.75;;;22.75;43.92
7264;BME280;3673;52.480;13.348;2023-03-13T13:17:59;99233.44;;;23.04;42.96
7264;BME280;3673;52.480;13.348;2023-03-13T13:20:44;99244.72;;;21.75;45.54
7264;BME280;3673;52.480;13.348;2023-03-13T13:23:33;99248.78;;;21.18;46.61
7264;BME280;3673;52.480;13.348;2023-03-13T13:26:46;99229.09;;;21.33;47.05